sensor_id;sensor_type;location;lat;lon;timestamp;pressure;altitude;pressure_sealevel;temperature;humidity
1652;BME280;823;49.028;8.454;2023-05-23T00:03:09;100267.78;;;22.71;56.94
1652;BME280;823;49.028;8.454;2023-05-23T00:08:10;100270.28;;;22.72;56.95
1652;BME280;823;49.028;8.454;2023-05-23T00:13:10;100256.53;;;22.69;57.12
1652;BME280;823;49.028;8.454;2023-05-23T00:18:13;100264.97;;;22.63;56.85
1652;BME280;823;49.028;8.454;2023-05-23T00:23:15;100271.91;;;22.64;57.51
1652;BME280;823;49.028;8.454;2023-05-23T00:28:18;100282.56;;;22.62;57.53
1652;BME280;823;49.028;8.454;2023-05-23T00:33:18;100278.41;;;22.59;57.31
1652;BME280;823;49.028;8.454;2023-05-23T00:38:21;100279.25;;;22.60;57.53
1652;BME280;823;49.028;8.454;2023-05-23T00:43:21;100280.94;;;22.61;57.49
1652;BME280;823;49.028;8.454;2023-05-23T00:48:23;100277.31;;;22.62;57.37
1652;BME280;823;49.028;8.454;2023-05-23T00:53:24;100271.22;;;22.61;57.41
1652;BME280;823;49.028;8.454;2023-05-23T00:58:25;100280.78;;;22.63;56.84
1652;BME280;823;49.028;8.454;2023-05-23T01:03:26;100290.22;;;22.65;56.60
1652;BME280;823;49.028;8.454;2023-05-23T01:08:28;100282.31;;;22.65;56.83
1652;BME280;823;49.028;8.454;2023-05-23T01:13:42;100285.53;;;22.69;56.27
1652;BME280;823;49.028;8.454;2023-05-23T01:18:59;100282.19;;;22.67;56.33
1652;BME280;823;49.028;8.454;2023-05-23T01:24:31;100281.22;;;22.68;56.32
1652;BME280;823;49.028;8.454;2023-05-23T01:29:45;100284.53;;;22.60;56.69
1652;BME280;823;49.028;8.454;2023-05-23T01:34:48;100283.38;;;22.53;57.07
1652;BME280;823;49.028;8.454;2023-05-23T01:39:51;100297.78;;;22.49;56.87
1652;BME280;823;49.028;8.454;2023-05-23T01:44:51;100297.06;;;22.47;57.01
1652;BME280;823;49.028;8.454;2023-05-23T01:49:52;100310.38;;;22.45;57.12
1652;BME280;823;49.028;8.454;2023-05-23T01:54:55;100300.53;;;22.47;57.14
1652;BME280;823;49.028;8.454;2023-05-23T01:59:55;100306.66;;;22.48;57.13
1652;BME280;823;49.028;8.454;2023-05-23T02:04:56;100307.34;;;22.50;57.08
1652;BME280;823;49.028;8.454;2023-05-23T02:09:57;100305.78;;;22.47;56.70
1652;BME280;823;49.028;8.454;2023-05-23T02:14:57;100309.41;;;22.46;56.70
1652;BME280;823;49.028;8.454;2023-05-23T02:19:58;100306.25;;;22.31;56.98
1652;BME280;823;49.028;8.454;2023-05-23T02:24:58;100307.28;;;22.40;56.66
1652;BME280;823;49.028;8.454;2023-05-23T02:29:58;100314.38;;;22.39;56.60
1652;BME280;823;49.028;8.454;2023-05-23T02:34:59;100311.88;;;22.38;57.10
1652;BME280;823;49.028;8.454;2023-05-23T02:39:59;100323.63;;;22.34;56.66
1652;BME280;823;49.028;8.454;2023-05-23T02:45:00;100318.22;;;22.35;57.08
1652;BME280;823;49.028;8.454;2023-05-23T02:50:01;100329.81;;;22.33;57.26
1652;BME280;823;49.028;8.454;2023-05-23T02:55:01;100318.69;;;22.29;57.37
1652;BME280;823;49.028;8.454;2023-05-23T03:00:02;100320.38;;;22.30;57.28
1652;BME280;823;49.028;8.454;2023-05-23T03:05:02;100319.41;;;22.31;57.39
1652;BME280;823;49.028;8.454;2023-05-23T03:10:03;100326.38;;;22.32;57.27
1652;BME280;823;49.028;8.454;2023-05-23T03:15:04;100325.78;;;22.28;57.43
1652;BME280;823;49.028;8.454;2023-05-23T03:20:04;100330.09;;;22.30;56.95
1652;BME280;823;49.028;8.454;2023-05-23T03:25:08;100335.63;;;22.26;57.04
1652;BME280;823;49.028;8.454;2023-05-23T03:30:09;100341.38;;;22.20;56.85
1652;BME280;823;49.028;8.454;2023-05-23T03:35:09;100343.53;;;22.26;56.68
1652;BME280;823;49.028;8.454;2023-05-23T03:40:10;100344.59;;;22.24;56.37
1652;BME280;823;49.028;8.454;2023-05-23T03:45:10;100351.66;;;22.23;55.95
1652;BME280;823;49.028;8.454;2023-05-23T03:50:11;100350.81;;;22.23;56.33
1652;BME280;823;49.028;8.454;2023-05-23T03:55:11;100354.41;;;22.22;56.36
1652;BME280;823;49.028;8.454;2023-05-23T04:00:12;100359.81;;;22.20;56.20
1652;BME280;823;49.028;8.454;2023-05-23T04:05:12;100362.31;;;22.22;56.02
1652;BME280;823;49.028;8.454;2023-05-23T04:10:12;100363.41;;;22.19;55.46
1652;BME280;823;49.028;8.454;2023-05-23T04:15:13;100369.78;;;22.17;55.82
1652;BME280;823;49.028;8.454;2023-05-23T04:20:13;100367.91;;;22.07;55.18
1652;BME280;823;49.028;8.454;2023-05-23T04:25:13;100379.19;;;21.98;55.18
1652;BME280;823;49.028;8.454;2023-05-23T04:30:14;100379.34;;;21.85;54.62
1652;BME280;823;49.028;8.454;2023-05-23T04:35:17;100380.06;;;21.76;54.83
1652;BME280;823;49.028;8.454;2023-05-23T04:40:17;100393.97;;;21.78;55.04
1652;BME280;823;49.028;8.454;2023-05-23T04:45:18;100390.88;;;21.73;54.84
1652;BME280;823;49.028;8.454;2023-05-23T04:50:18;100399.34;;;21.76;54.64
1652;BME280;823;49.028;8.454;2023-05-23T04:55:21;100401.97;;;21.76;54.44
1652;BME280;823;49.028;8.454;2023-05-23T05:00:21;100413.81;;;21.71;54.52
1652;BME280;823;49.028;8.454;2023-05-23T05:05:21;100411.66;;;21.76;54.76
1652;BME280;823;49.028;8.454;2023-05-23T05:10:22;100406.19;;;21.68;54.37
1652;BME280;823;49.028;8.454;2023-05-23T05:15:22;100418.75;;;21.75;53.89
1652;BME280;823;49.028;8.454;2023-05-23T05:20:22;100424.34;;;21.71;53.50
1652;BME280;823;49.028;8.454;2023-05-23T05:25:23;100421.38;;;21.75;53.19
1652;BME280;823;49.028;8.454;2023-05-23T05:30:23;100429.94;;;21.89;53.64
1652;BME280;823;49.028;8.454;2023-05-23T05:35:23;100422.28;;;21.86;52.19
1652;BME280;823;49.028;8.454;2023-05-23T05:40:24;100435.34;;;21.76;52.11
1652;BME280;823;49.028;8.454;2023-05-23T05:45:24;100441.81;;;21.72;51.17
1652;BME280;823;49.028;8.454;2023-05-23T05:50:25;100454.50;;;21.67;51.18
1652;BME280;823;49.028;8.454;2023-05-23T05:55:25;100448.56;;;21.53;51.03
1652;BME280;823;49.028;8.454;2023-05-23T06:00:26;100465.75;;;21.69;50.60
1652;BME280;823;49.028;8.454;2023-05-23T06:05:26;100469.84;;;21.73;50.04
1652;BME280;823;49.028;8.454;2023-05-23T06:10:26;100477.38;;;21.66;49.70
1652;BME280;823;49.028;8.454;2023-05-23T06:15:26;100478.44;;;21.52;49.69
1652;BME280;823;49.028;8.454;2023-05-23T06:20:27;100488.03;;;21.65;49.71
1652;BME280;823;49.028;8.454;2023-05-23T06:25:27;100493.47;;;21.39;49.94
1652;BME280;823;49.028;8.454;2023-05-23T06:30:28;100500.13;;;21.09;50.09
1652;BME280;823;49.028;8.454;2023-05-23T06:35:28;100500.69;;;21.01;50.14
1652;BME280;823;49.028;8.454;2023-05-23T06:40:28;100502.25;;;21.04;50.37
1652;BME280;823;49.028;8.454;2023-05-23T06:45:29;100516.38;;;21.14;49.65
1652;BME280;823;49.028;8.454;2023-05-23T06:50:29;100521.16;;;20.98;49.53
1652;BME280;823;49.028;8.454;2023-05-23T06:55:29;100533.47;;;21.08;49.10
1652;BME280;823;49.028;8.454;2023-05-23T07:00:31;100540.38;;;20.98;49.17
1652;BME280;823;49.028;8.454;2023-05-23T07:05:32;100538.53;;;20.87;48.79
1652;BME280;823;49.028;8.454;2023-05-23T07:10:33;100542.31;;;20.72;48.99
1652;BME280;823;49.028;8.454;2023-05-23T07:15:34;100548.22;;;20.87;48.55
1652;BME280;823;49.028;8.454;2023-05-23T07:20:35;100555.59;;;21.06;48.89
1652;BME280;823;49.028;8.454;2023-05-23T07:25:35;100560.94;;;21.04;49.00
1652;BME280;823;49.028;8.454;2023-05-23T07:30:35;100569.75;;;20.92;48.41
1652;BME280;823;49.028;8.454;2023-05-23T07:35:36;100568.88;;;20.80;47.99
1652;BME280;823;49.028;8.454;2023-05-23T07:40:36;100560.22;;;21.02;48.20
1652;BME280;823;49.028;8.454;2023-05-23T07:45:37;100570.44;;;21.18;48.17
1652;BME280;823;49.028;8.454;2023-05-23T07:50:40;100574.56;;;21.45;48.00
1652;BME280;823;49.028;8.454;2023-05-23T07:55:41;100574.31;;;21.25;46.96
1652;BME280;823;49.028;8.454;2023-05-23T08:00:41;100568.31;;;21.35;47.10
1652;BME280;823;49.028;8.454;2023-05-23T08:05:43;100569.69;;;21.05;47.36
1652;BME280;823;49.028;8.454;2023-05-23T08:10:43;100569.50;;;21.31;47.65
1652;BME280;823;49.028;8.454;2023-05-23T08:15:44;100576.44;;;21.32;47.81
1652;BME280;823;49.028;8.454;2023-05-23T08:20:45;100575.88;;;21.28;46.57
1652;BME280;823;49.028;8.454;2023-05-23T08:25:45;100581.03;;;21.41;46.84
1652;BME280;823;49.028;8.454;2023-05-23T08:30:45;100579.59;;;21.48;46.50
1652;BME280;823;49.028;8.454;2023-05-23T08:35:46;100582.81;;;21.40;45.90
1652;BME280;823;49.028;8.454;2023-05-23T08:40:50;100594.50;;;21.60;46.30
1652;BME280;823;49.028;8.454;2023-05-23T08:45:53;100589.94;;;21.63;46.01
1652;BME280;823;49.028;8.454;2023-05-23T08:50:54;100594.38;;;21.62;45.42
1652;BME280;823;49.028;8.454;2023-05-23T08:55:54;100601.19;;;21.53;46.39
1652;BME280;823;49.028;8.454;2023-05-23T09:00:58;100598.19;;;21.22;46.31
1652;BME280;823;49.028;8.454;2023-05-23T09:06:05;100605.38;;;21.32;46.06
1652;BME280;823;49.028;8.454;2023-05-23T09:11:07;100604.44;;;21.33;46.63
1652;BME280;823;49.028;8.454;2023-05-23T09:16:10;100609.47;;;21.36;46.37
1652;BME280;823;49.028;8.454;2023-05-23T09:21:12;100611.84;;;21.63;45.68
1652;BME280;823;49.028;8.454;2023-05-23T09:26:12;100610.41;;;21.82;45.04
1652;BME280;823;49.028;8.454;2023-05-23T09:31:12;100614.84;;;22.15;44.76
1652;BME280;823;49.028;8.454;2023-05-23T09:36:13;100616.53;;;22.16;43.20
1652;BME280;823;49.028;8.454;2023-05-23T09:41:14;100609.50;;;22.17;43.34
1652;BME280;823;49.028;8.454;2023-05-23T09:46:14;100603.50;;;22.37;43.28
1652;BME280;823;49.028;8.454;2023-05-23T09:51:17;100612.38;;;22.48;41.70
1652;BME280;823;49.028;8.454;2023-05-23T09:56:18;100618.94;;;22.31;41.93
1652;BME280;823;49.028;8.454;2023-05-23T10:01:20;100612.25;;;22.49;42.40
1652;BME280;823;49.028;8.454;2023-05-23T10:06:34;100616.28;;;22.65;41.71
1652;BME280;823;49.028;8.454;2023-05-23T10:12:12;100622.06;;;22.58;42.14
1652;BME280;823;49.028;8.454;2023-05-23T10:17:51;100610.53;;;22.71;41.48
1652;BME280;823;49.028;8.454;2023-05-23T10:22:47;100615.31;;;22.98;41.92
1652;BME280;823;49.028;8.454;2023-05-23T10:27:52;100613.72;;;23.18;40.53
1652;BME280;823;49.028;8.454;2023-05-23T10:32:55;100612.38;;;23.24;41.01
1652;BME280;823;49.028;8.454;2023-05-23T10:38:03;100612.13;;;23.48;40.69
1652;BME280;823;49.028;8.454;2023-05-23T10:43:19;100603.97;;;23.51;40.37
1652;BME280;823;49.028;8.454;2023-05-23T10:48:43;100614.88;;;23.25;41.36
1652;BME280;823;49.028;8.454;2023-05-23T10:53:44;100622.22;;;23.22;40.93
1652;BME280;823;49.028;8.454;2023-05-23T10:58:45;100618.78;;;23.10;41.16
1652;BME280;823;49.028;8.454;2023-05-23T11:08:45;100602.28;;;23.50;40.80
1652;BME280;823;49.028;8.454;2023-05-23T11:24:19;100593.75;;;23.89;39.71
1652;BME280;823;49.028;8.454;2023-05-23T11:29:19;100607.19;;;24.07;38.95
1652;BME280;823;49.028;8.454;2023-05-23T11:34:19;100605.22;;;23.78;39.31
1652;BME280;823;49.028;8.454;2023-05-23T11:39:21;100596.97;;;23.71;39.64
1652;BME280;823;49.028;8.454;2023-05-23T11:44:21;100589.41;;;23.57;39.95
1652;BME280;823;49.028;8.454;2023-05-23T11:49:22;100598.19;;;23.67;40.79
1652;BME280;823;49.028;8.454;2023-05-23T11:54:23;100593.88;;;23.66;40.45
1652;BME280;823;49.028;8.454;2023-05-23T11:59:25;100596.28;;;23.69;40.57
1652;BME280;823;49.028;8.454;2023-05-23T12:04:26;100598.22;;;23.46;40.68
1652;BME280;823;49.028;8.454;2023-05-23T12:09:26;100606.16;;;23.25;41.80
1652;BME280;823;49.028;8.454;2023-05-23T12:14:27;100606.38;;;23.22;40.89
1652;BME280;823;49.028;8.454;2023-05-23T12:19:28;100602.44;;;23.16;41.96
1652;BME280;823;49.028;8.454;2023-05-23T12:24:28;100606.00;;;23.26;41.28
1652;BME280;823;49.028;8.454;2023-05-23T12:29:33;100597.03;;;23.18;41.64
1652;BME280;823;49.028;8.454;2023-05-23T12:34:40;100590.88;;;23.28;41.32
1652;BME280;823;49.028;8.454;2023-05-23T12:39:42;100590.81;;;23.40;40.62
1652;BME280;823;49.028;8.454;2023-05-23T12:44:43;100585.91;;;23.56;40.62
1652;BME280;823;49.028;8.454;2023-05-23T12:49:45;100589.91;;;23.51;40.05
1652;BME280;823;49.028;8.454;2023-05-23T12:54:46;100578.91;;;23.67;39.38
1652;BME280;823;49.028;8.454;2023-05-23T12:59:46;100578.53;;;23.81;40.59
1652;BME280;823;49.028;8.454;2023-05-23T13:04:46;100567.34;;;23.89;39.46
1652;BME280;823;49.028;8.454;2023-05-23T13:09:47;100576.75;;;23.82;38.58
1652;BME280;823;49.028;8.454;2023-05-23T13:14:48;100572.69;;;24.08;38.62
1652;BME280;823;49.028;8.454;2023-05-23T13:19:48;100576.16;;;24.09;38.98
1652;BME280;823;49.028;8.454;2023-05-23T13:24:49;100575.81;;;23.92;38.18
1652;BME280;823;49.028;8.454;2023-05-23T13:29:49;100564.63;;;24.10;39.28
1652;BME280;823;49.028;8.454;2023-05-23T13:34:50;100560.81;;;24.43;37.42
1652;BME280;823;49.028;8.454;2023-05-23T13:39:50;100556.81;;;24.69;37.55
1652;BME280;823;49.028;8.454;2023-05-23T13:44:50;100566.72;;;24.76;38.60
1652;BME280;823;49.028;8.454;2023-05-23T13:49:51;100573.06;;;24.35;38.43
1652;BME280;823;49.028;8.454;2023-05-23T13:54:51;100563.81;;;24.09;39.18
1652;BME280;823;49.028;8.454;2023-05-23T13:59:51;100561.38;;;23.96;39.47
1652;BME280;823;49.028;8.454;2023-05-23T14:04:52;100571.19;;;23.85;39.28
1652;BME280;823;49.028;8.454;2023-05-23T14:09:52;100552.25;;;23.79;39.08
1652;BME280;823;49.028;8.454;2023-05-23T14:14:52;100557.66;;;24.09;40.08
1652;BME280;823;49.028;8.454;2023-05-23T14:19:53;100561.56;;;24.05;39.38
1652;BME280;823;49.028;8.454;2023-05-23T14:24:53;100557.31;;;24.23;38.69
1652;BME280;823;49.028;8.454;2023-05-23T14:29:53;100559.72;;;24.56;39.20
1652;BME280;823;49.028;8.454;2023-05-23T14:34:54;100558.03;;;24.55;38.12
1652;BME280;823;49.028;8.454;2023-05-23T14:39:57;100552.19;;;24.31;37.64
1652;BME280;823;49.028;8.454;2023-05-23T14:44:57;100565.41;;;24.31;38.75
1652;BME280;823;49.028;8.454;2023-05-23T14:49:58;100560.25;;;24.30;38.90
1652;BME280;823;49.028;8.454;2023-05-23T14:54:58;100564.66;;;24.20;38.48
1652;BME280;823;49.028;8.454;2023-05-23T15:00:00;100562.97;;;24.19;39.13
1652;BME280;823;49.028;8.454;2023-05-23T15:05:04;100562.78;;;24.41;39.27
1652;BME280;823;49.028;8.454;2023-05-23T15:10:05;100565.78;;;24.27;38.26
1652;BME280;823;49.028;8.454;2023-05-23T15:15:07;100564.13;;;24.16;38.87
1652;BME280;823;49.028;8.454;2023-05-23T15:20:07;100562.28;;;24.17;39.44
1652;BME280;823;49.028;8.454;2023-05-23T15:25:09;100561.81;;;24.02;39.83
1652;BME280;823;49.028;8.454;2023-05-23T15:30:10;100560.78;;;24.24;39.40
1652;BME280;823;49.028;8.454;2023-05-23T15:35:10;100560.19;;;24.20;39.16
1652;BME280;823;49.028;8.454;2023-05-23T15:40:11;100555.84;;;24.00;39.15
1652;BME280;823;49.028;8.454;2023-05-23T15:45:12;100552.69;;;24.16;39.43
1652;BME280;823;49.028;8.454;2023-05-23T15:50:12;100562.31;;;23.86;38.95
1652;BME280;823;49.028;8.454;2023-05-23T15:55:12;100566.00;;;23.52;40.06
1652;BME280;823;49.028;8.454;2023-05-23T16:00:13;100561.00;;;23.49;40.35
1652;BME280;823;49.028;8.454;2023-05-23T16:05:14;100565.56;;;23.26;40.32
1652;BME280;823;49.028;8.454;2023-05-23T16:10:14;100570.53;;;23.40;40.24
1652;BME280;823;49.028;8.454;2023-05-23T16:15:15;100571.88;;;23.56;39.51
1652;BME280;823;49.028;8.454;2023-05-23T16:20:15;100569.25;;;23.56;39.69
1652;BME280;823;49.028;8.454;2023-05-23T16:25:15;100567.75;;;23.63;39.14
1652;BME280;823;49.028;8.454;2023-05-23T16:30:16;100568.19;;;23.68;39.88
1652;BME280;823;49.028;8.454;2023-05-23T16:35:16;100568.38;;;23.76;39.93
1652;BME280;823;49.028;8.454;2023-05-23T16:40:16;100566.41;;;23.48;39.06
1652;BME280;823;49.028;8.454;2023-05-23T16:45:17;100572.53;;;23.27;39.46
1652;BME280;823;49.028;8.454;2023-05-23T16:50:17;100571.97;;;22.91;40.13
1652;BME280;823;49.028;8.454;2023-05-23T16:55:17;100571.47;;;22.65;40.83
1652;BME280;823;49.028;8.454;2023-05-23T17:00:18;100577.97;;;22.49;41.39
1652;BME280;823;49.028;8.454;2023-05-23T17:05:19;100574.28;;;22.40;41.93
1652;BME280;823;49.028;8.454;2023-05-23T17:10:20;100580.47;;;22.51;42.13
1652;BME280;823;49.028;8.454;2023-05-23T17:15:21;100577.03;;;22.50;41.68
1652;BME280;823;49.028;8.454;2023-05-23T17:20:21;100589.00;;;22.54;42.15
1652;BME280;823;49.028;8.454;2023-05-23T17:25:23;100593.94;;;22.36;41.66
1652;BME280;823;49.028;8.454;2023-05-23T17:30:23;100596.66;;;22.23;42.58
1652;BME280;823;49.028;8.454;2023-05-23T17:35:23;100593.22;;;22.00;42.30
1652;BME280;823;49.028;8.454;2023-05-23T17:40:24;100599.56;;;21.98;42.73
1652;BME280;823;49.028;8.454;2023-05-23T17:45:25;100595.69;;;21.79;42.72
1652;BME280;823;49.028;8.454;2023-05-23T17:50:25;100603.63;;;21.90;42.76
1652;BME280;823;49.028;8.454;2023-05-23T17:55:25;100607.09;;;22.02;42.00
1652;BME280;823;49.028;8.454;2023-05-23T18:00:25;100616.19;;;21.75;42.00
1652;BME280;823;49.028;8.454;2023-05-23T18:05:26;100626.25;;;21.46;42.02
1652;BME280;823;49.028;8.454;2023-05-23T18:10:27;100625.03;;;21.39;41.65
1652;BME280;823;49.028;8.454;2023-05-23T18:15:28;100630.13;;;21.29;41.96
1652;BME280;823;49.028;8.454;2023-05-23T18:20:28;100633.16;;;21.36;42.29
1652;BME280;823;49.028;8.454;2023-05-23T18:25:28;100632.16;;;21.25;42.21
1652;BME280;823;49.028;8.454;2023-05-23T18:30:29;100633.13;;;21.24;42.31
1652;BME280;823;49.028;8.454;2023-05-23T18:35:29;100631.00;;;21.30;42.55
1652;BME280;823;49.028;8.454;2023-05-23T18:40:30;100634.72;;;21.14;42.62
1652;BME280;823;49.028;8.454;2023-05-23T18:45:30;100637.44;;;21.01;43.18
1652;BME280;823;49.028;8.454;2023-05-23T18:50:30;100639.19;;;20.89;43.78
1652;BME280;823;49.028;8.454;2023-05-23T18:55:31;100655.59;;;20.80;43.57
1652;BME280;823;49.028;8.454;2023-05-23T19:00:31;100661.75;;;20.68;44.06
1652;BME280;823;49.028;8.454;2023-05-23T19:05:32;100672.69;;;20.49;43.98
1652;BME280;823;49.028;8.454;2023-05-23T19:10:32;100680.81;;;20.33;44.14
1652;BME280;823;49.028;8.454;2023-05-23T19:15:32;100690.56;;;20.31;44.28
1652;BME280;823;49.028;8.454;2023-05-23T19:20:33;100697.09;;;20.12;44.06
1652;BME280;823;49.028;8.454;2023-05-23T19:25:33;100706.03;;;19.97;44.56
1652;BME280;823;49.028;8.454;2023-05-23T19:30:33;100711.56;;;19.92;44.40
1652;BME280;823;49.028;8.454;2023-05-23T19:35:34;100717.78;;;19.91;44.39
1652;BME280;823;49.028;8.454;2023-05-23T19:40:34;100724.56;;;19.94;44.46
1652;BME280;823;49.028;8.454;2023-05-23T19:45:34;100726.81;;;20.00;44.52
1652;BME280;823;49.028;8.454;2023-05-23T19:50:36;100742.78;;;19.69;44.08
1652;BME280;823;49.028;8.454;2023-05-23T19:55:38;100736.88;;;19.66;43.88
1652;BME280;823;49.028;8.454;2023-05-23T20:00:38;100745.50;;;19.68;43.91
1652;BME280;823;49.028;8.454;2023-05-23T20:05:39;100732.66;;;19.50;44.06
1652;BME280;823;49.028;8.454;2023-05-23T20:10:39;100751.53;;;19.43;44.33
1652;BME280;823;49.028;8.454;2023-05-23T20:15:40;100765.56;;;19.42;44.30
1652;BME280;823;49.028;8.454;2023-05-23T20:20:40;100761.16;;;19.42;43.80
1652;BME280;823;49.028;8.454;2023-05-23T20:25:40;100762.59;;;19.33;44.19
1652;BME280;823;49.028;8.454;2023-05-23T20:30:42;100775.59;;;19.35;43.43
1652;BME280;823;49.028;8.454;2023-05-23T20:35:42;100780.44;;;19.41;43.58
1652;BME280;823;49.028;8.454;2023-05-23T20:40:43;100783.47;;;19.35;43.50
1652;BME280;823;49.028;8.454;2023-05-23T20:45:44;100785.16;;;19.36;43.26
1652;BME280;823;49.028;8.454;2023-05-23T20:50:44;100783.53;;;19.06;43.07
1652;BME280;823;49.028;8.454;2023-05-23T20:55:45;100789.84;;;19.31;43.10
1652;BME280;823;49.028;8.454;2023-05-23T21:00:46;100793.91;;;19.08;42.68
1652;BME280;823;49.028;8.454;2023-05-23T21:05:46;100797.09;;;19.13;42.34
1652;BME280;823;49.028;8.454;2023-05-23T21:10:47;100805.72;;;19.00;42.38
1652;BME280;823;49.028;8.454;2023-05-23T21:15:47;100808.25;;;19.02;42.45
1652;BME280;823;49.028;8.454;2023-05-23T21:20:47;100813.50;;;18.87;42.23
1652;BME280;823;49.028;8.454;2023-05-23T21:25:49;100810.50;;;19.08;42.52
1652;BME280;823;49.028;8.454;2023-05-23T21:30:49;100822.47;;;18.98;42.76
1652;BME280;823;49.028;8.454;2023-05-23T21:35:50;100818.72;;;19.02;42.87
1652;BME280;823;49.028;8.454;2023-05-23T21:40:51;100818.47;;;19.07;43.06
1652;BME280;823;49.028;8.454;2023-05-23T21:45:51;100819.03;;;18.97;42.47
1652;BME280;823;49.028;8.454;2023-05-23T21:50:52;100816.31;;;18.99;41.79
1652;BME280;823;49.028;8.454;2023-05-23T21:55:52;100817.53;;;18.93;41.89
1652;BME280;823;49.028;8.454;2023-05-23T22:00:52;100818.09;;;18.98;40.79
1652;BME280;823;49.028;8.454;2023-05-23T22:05:53;100820.25;;;18.92;40.39
1652;BME280;823;49.028;8.454;2023-05-23T22:10:53;100820.56;;;18.85;40.72
1652;BME280;823;49.028;8.454;2023-05-23T22:15:53;100821.53;;;18.84;40.13
1652;BME280;823;49.028;8.454;2023-05-23T22:20:54;100827.97;;;18.79;40.05
1652;BME280;823;49.028;8.454;2023-05-23T22:25:54;100830.94;;;18.88;40.59
1652;BME280;823;49.028;8.454;2023-05-23T22:30:54;100828.63;;;18.82;40.20
1652;BME280;823;49.028;8.454;2023-05-23T22:35:55;100836.41;;;18.84;40.40
1652;BME280;823;49.028;8.454;2023-05-23T22:40:55;100834.63;;;18.84;40.32
1652;BME280;823;49.028;8.454;2023-05-23T22:45:56;100833.53;;;18.88;41.06
1652;BME280;823;49.028;8.454;2023-05-23T22:50:56;100839.88;;;18.84;40.82
1652;BME280;823;49.028;8.454;2023-05-23T22:55:57;100844.16;;;18.85;40.89
1652;BME280;823;49.028;8.454;2023-05-23T23:00:57;100841.81;;;18.81;41.72
1652;BME280;823;49.028;8.454;2023-05-23T23:05:57;100842.13;;;18.76;40.91
1652;BME280;823;49.028;8.454;2023-05-23T23:10:58;100841.63;;;18.69;40.89
1652;BME280;823;49.028;8.454;2023-05-23T23:15:58;100841.34;;;18.60;41.26
1652;BME280;823;49.028;8.454;2023-05-23T23:20:58;100854.06;;;18.66;41.77
1652;BME280;823;49.028;8.454;2023-05-23T23:25:59;100843.19;;;18.58;41.57
1652;BME280;823;49.028;8.454;2023-05-23T23:30:59;100844.22;;;18.55;41.90
1652;BME280;823;49.028;8.454;2023-05-23T23:35:59;100843.88;;;18.61;42.22
1652;BME280;823;49.028;8.454;2023-05-23T23:41:00;100838.16;;;18.54;41.89
1652;BME280;823;49.028;8.454;2023-05-23T23:46:00;100834.13;;;18.49;41.66
1652;BME280;823;49.028;8.454;2023-05-23T23:51:00;100833.44;;;18.45;41.96
1652;BME280;823;49.028;8.454;2023-05-23T23:56:01;100823.44;;;18.37;41.83
